sensor_id;sensor_type;location;lat;lon;timestamp;temperature;humidity
33715;DHT22;20043;50.998;4.754;2023-08-07T00:00:12;14.10;99.90
33715;DHT22;20043;50.998;4.754;2023-08-07T00:02:38;14.00;99.90
33715;DHT22;20043;50.998;4.754;2023-08-07T00:05:05;14.10;99.90
33715;DHT22;20043;50.998;4.754;2023-08-07T00:07:31;14.10;99.90
33715;DHT22;20043;50.998;4.754;2023-08-07T00:09:57;14.20;99.90
33715;DHT22;20043;50.998;4.754;2023-08-07T00:12:22;14.20;99.90
33715;DHT22;20043;50.998;4.754;2023-08-07T00:14:50;14.20;99.90
33715;DHT22;20043;50.998;4.754;2023-08-07T00:17:16;14.20;99.90
33715;DHT22;20043;50.998;4.754;2023-08-07T00:19:42;14.20;99.90
33715;DHT22;20043;50.998;4.754;2023-08-07T00:22:07;14.10;99.90
33715;DHT22;20043;50.998;4.754;2023-08-07T00:24:33;14.10;99.90
33715;DHT22;20043;50.998;4.754;2023-08-07T00:26:59;14.10;99.90
33715;DHT22;20043;50.998;4.754;2023-08-07T00:29:24;14.00;99.90
33715;DHT22;20043;50.998;4.754;2023-08-07T00:31:50;14.00;99.90
33715;DHT22;20043;50.998;4.754;2023-08-07T00:34:16;13.80;99.90
33715;DHT22;20043;50.998;4.754;2023-08-07T00:36:41;13.80;99.90
33715;DHT22;20043;50.998;4.754;2023-08-07T00:39:07;13.80;99.90
33715;DHT22;20043;50.998;4.754;2023-08-07T00:41:33;13.80;99.90
33715;DHT22;20043;50.998;4.754;2023-08-07T00:43:59;13.80;99.90
33715;DHT22;20043;50.998;4.754;2023-08-07T00:46:26;13.80;99.90
33715;DHT22;20043;50.998;4.754;2023-08-07T00:48:52;13.80;99.90
33715;DHT22;20043;50.998;4.754;2023-08-07T00:51:20;13.70;99.90
33715;DHT22;20043;50.998;4.754;2023-08-07T00:53:46;13.70;99.90
33715;DHT22;20043;50.998;4.754;2023-08-07T00:56:12;13.70;99.90
33715;DHT22;20043;50.998;4.754;2023-08-07T00:58:38;13.70;99.90
33715;DHT22;20043;50.998;4.754;2023-08-07T01:01:05;13.70;99.90
33715;DHT22;20043;50.998;4.754;2023-08-07T01:03:31;13.80;99.90
33715;DHT22;20043;50.998;4.754;2023-08-07T01:05:56;13.80;99.90
33715;DHT22;20043;50.998;4.754;2023-08-07T01:08:26;13.80;99.90
33715;DHT22;20043;50.998;4.754;2023-08-07T01:13:55;13.90;99.90
33715;DHT22;20043;50.998;4.754;2023-08-07T01:19:27;13.90;99.90
33715;DHT22;20043;50.998;4.754;2023-08-07T01:22:12;13.90;99.90
33715;DHT22;20043;50.998;4.754;2023-08-07T01:24:41;13.80;99.90
33715;DHT22;20043;50.998;4.754;2023-08-07T01:35:36;13.70;99.90
33715;DHT22;20043;50.998;4.754;2023-08-07T01:38:05;13.60;99.90
33715;DHT22;20043;50.998;4.754;2023-08-07T01:40:31;13.70;99.90
33715;DHT22;20043;50.998;4.754;2023-08-07T01:42:57;13.60;99.90
33715;DHT22;20043;50.998;4.754;2023-08-07T01:45:25;13.40;99.90
33715;DHT22;20043;50.998;4.754;2023-08-07T01:47:51;13.50;99.90
33715;DHT22;20043;50.998;4.754;2023-08-07T01:50:18;13.40;99.90
33715;DHT22;20043;50.998;4.754;2023-08-07T01:52:45;13.40;99.90
33715;DHT22;20043;50.998;4.754;2023-08-07T01:55:11;13.40;99.90
33715;DHT22;20043;50.998;4.754;2023-08-07T01:57:36;13.40;99.90
33715;DHT22;20043;50.998;4.754;2023-08-07T02:00:02;13.50;99.90
33715;DHT22;20043;50.998;4.754;2023-08-07T02:02:29;13.30;99.90
33715;DHT22;20043;50.998;4.754;2023-08-07T02:04:54;13.40;99.90
33715;DHT22;20043;50.998;4.754;2023-08-07T02:07:20;13.40;99.90
33715;DHT22;20043;50.998;4.754;2023-08-07T02:09:46;13.30;99.90
33715;DHT22;20043;50.998;4.754;2023-08-07T02:12:11;13.30;99.90
33715;DHT22;20043;50.998;4.754;2023-08-07T02:14:37;13.30;99.90
33715;DHT22;20043;50.998;4.754;2023-08-07T02:17:03;13.20;99.90
33715;DHT22;20043;50.998;4.754;2023-08-07T02:19:28;13.20;99.90
33715;DHT22;20043;50.998;4.754;2023-08-07T02:21:54;13.20;99.90
33715;DHT22;20043;50.998;4.754;2023-08-07T02:24:20;13.30;99.90
33715;DHT22;20043;50.998;4.754;2023-08-07T02:26:45;13.50;99.90
33715;DHT22;20043;50.998;4.754;2023-08-07T02:29:11;13.50;99.90
33715;DHT22;20043;50.998;4.754;2023-08-07T02:31:36;13.50;99.90
33715;DHT22;20043;50.998;4.754;2023-08-07T02:34:02;13.50;99.90
33715;DHT22;20043;50.998;4.754;2023-08-07T02:36:28;13.50;99.90
33715;DHT22;20043;50.998;4.754;2023-08-07T02:38:53;13.40;99.90
33715;DHT22;20043;50.998;4.754;2023-08-07T02:41:19;13.30;99.90
33715;DHT22;20043;50.998;4.754;2023-08-07T02:43:46;13.30;99.90
33715;DHT22;20043;50.998;4.754;2023-08-07T02:46:11;13.30;99.90
33715;DHT22;20043;50.998;4.754;2023-08-07T02:48:37;13.20;99.90
33715;DHT22;20043;50.998;4.754;2023-08-07T02:51:04;13.20;99.90
33715;DHT22;20043;50.998;4.754;2023-08-07T02:53:30;13.20;99.90
33715;DHT22;20043;50.998;4.754;2023-08-07T02:55:55;13.20;99.90
33715;DHT22;20043;50.998;4.754;2023-08-07T02:58:21;13.20;99.90
33715;DHT22;20043;50.998;4.754;2023-08-07T03:00:47;13.20;99.90
33715;DHT22;20043;50.998;4.754;2023-08-07T03:03:12;13.20;99.90
33715;DHT22;20043;50.998;4.754;2023-08-07T03:05:38;13.20;99.90
33715;DHT22;20043;50.998;4.754;2023-08-07T03:08:04;13.20;99.90
33715;DHT22;20043;50.998;4.754;2023-08-07T03:10:29;13.30;99.90
33715;DHT22;20043;50.998;4.754;2023-08-07T03:12:55;13.30;99.90
33715;DHT22;20043;50.998;4.754;2023-08-07T03:15:21;13.10;99.90
33715;DHT22;20043;50.998;4.754;2023-08-07T03:17:46;13.20;99.90
33715;DHT22;20043;50.998;4.754;2023-08-07T03:20:12;13.20;99.90
33715;DHT22;20043;50.998;4.754;2023-08-07T03:22:37;13.30;99.90
33715;DHT22;20043;50.998;4.754;2023-08-07T03:25:03;13.30;99.90
33715;DHT22;20043;50.998;4.754;2023-08-07T03:27:29;13.30;99.90
33715;DHT22;20043;50.998;4.754;2023-08-07T03:29:55;13.30;99.90
33715;DHT22;20043;50.998;4.754;2023-08-07T03:32:20;13.30;99.90
33715;DHT22;20043;50.998;4.754;2023-08-07T03:34:46;13.40;99.90
33715;DHT22;20043;50.998;4.754;2023-08-07T03:37:11;13.40;99.90
33715;DHT22;20043;50.998;4.754;2023-08-07T03:39:37;13.40;99.90
33715;DHT22;20043;50.998;4.754;2023-08-07T03:42:03;13.30;99.90
33715;DHT22;20043;50.998;4.754;2023-08-07T03:44:29;13.30;99.90
33715;DHT22;20043;50.998;4.754;2023-08-07T03:46:54;13.20;99.90
33715;DHT22;20043;50.998;4.754;2023-08-07T03:49:23;13.20;99.90
33715;DHT22;20043;50.998;4.754;2023-08-07T03:51:48;13.20;99.90
33715;DHT22;20043;50.998;4.754;2023-08-07T03:54:14;13.20;99.90
33715;DHT22;20043;50.998;4.754;2023-08-07T03:56:40;13.40;99.90
33715;DHT22;20043;50.998;4.754;2023-08-07T03:59:06;13.40;99.90
33715;DHT22;20043;50.998;4.754;2023-08-07T04:01:32;13.50;99.90
33715;DHT22;20043;50.998;4.754;2023-08-07T04:03:57;13.60;99.90
33715;DHT22;20043;50.998;4.754;2023-08-07T04:06:23;13.60;99.90
33715;DHT22;20043;50.998;4.754;2023-08-07T04:08:49;13.70;99.90
33715;DHT22;20043;50.998;4.754;2023-08-07T04:11:14;13.80;99.90
33715;DHT22;20043;50.998;4.754;2023-08-07T04:13:40;13.80;99.90
33715;DHT22;20043;50.998;4.754;2023-08-07T04:16:06;13.70;99.90
33715;DHT22;20043;50.998;4.754;2023-08-07T04:18:32;13.70;99.90
33715;DHT22;20043;50.998;4.754;2023-08-07T04:20:58;13.60;99.90
33715;DHT22;20043;50.998;4.754;2023-08-07T04:23:25;13.60;99.90
33715;DHT22;20043;50.998;4.754;2023-08-07T04:25:51;13.60;99.90
33715;DHT22;20043;50.998;4.754;2023-08-07T04:28:17;13.70;99.90
33715;DHT22;20043;50.998;4.754;2023-08-07T04:30:44;13.70;99.90
33715;DHT22;20043;50.998;4.754;2023-08-07T04:33:10;13.70;99.90
33715;DHT22;20043;50.998;4.754;2023-08-07T04:35:35;13.60;99.90
33715;DHT22;20043;50.998;4.754;2023-08-07T04:38:02;13.60;99.90
33715;DHT22;20043;50.998;4.754;2023-08-07T04:40:28;13.70;99.90
33715;DHT22;20043;50.998;4.754;2023-08-07T04:42:54;13.70;99.90
33715;DHT22;20043;50.998;4.754;2023-08-07T04:45:20;13.90;99.90
33715;DHT22;20043;50.998;4.754;2023-08-07T04:47:45;13.80;99.90
33715;DHT22;20043;50.998;4.754;2023-08-07T04:50:11;13.90;99.90
33715;DHT22;20043;50.998;4.754;2023-08-07T04:52:37;13.90;99.90
33715;DHT22;20043;50.998;4.754;2023-08-07T04:55:02;13.80;99.90
33715;DHT22;20043;50.998;4.754;2023-08-07T04:57:28;13.80;99.90
33715;DHT22;20043;50.998;4.754;2023-08-07T04:59:54;13.90;99.90
33715;DHT22;20043;50.998;4.754;2023-08-07T05:02:19;13.90;99.90
33715;DHT22;20043;50.998;4.754;2023-08-07T05:04:45;13.90;99.90
33715;DHT22;20043;50.998;4.754;2023-08-07T05:07:11;14.00;99.90
33715;DHT22;20043;50.998;4.754;2023-08-07T05:09:38;14.00;99.90
33715;DHT22;20043;50.998;4.754;2023-08-07T05:12:04;14.00;99.90
33715;DHT22;20043;50.998;4.754;2023-08-07T05:14:30;13.90;99.90
33715;DHT22;20043;50.998;4.754;2023-08-07T05:16:55;13.90;99.90
33715;DHT22;20043;50.998;4.754;2023-08-07T05:19:21;13.90;99.90
33715;DHT22;20043;50.998;4.754;2023-08-07T05:21:50;13.90;99.90
33715;DHT22;20043;50.998;4.754;2023-08-07T05:24:17;13.90;99.90
33715;DHT22;20043;50.998;4.754;2023-08-07T05:26:42;13.90;99.90
33715;DHT22;20043;50.998;4.754;2023-08-07T05:29:08;13.90;99.90
33715;DHT22;20043;50.998;4.754;2023-08-07T05:31:34;13.90;99.90
33715;DHT22;20043;50.998;4.754;2023-08-07T05:33:59;13.90;99.90
33715;DHT22;20043;50.998;4.754;2023-08-07T05:36:25;14.00;99.90
33715;DHT22;20043;50.998;4.754;2023-08-07T05:38:51;14.10;99.90
33715;DHT22;20043;50.998;4.754;2023-08-07T05:41:17;14.20;99.90
33715;DHT22;20043;50.998;4.754;2023-08-07T05:43:42;14.20;99.90
33715;DHT22;20043;50.998;4.754;2023-08-07T05:46:08;14.30;99.90
33715;DHT22;20043;50.998;4.754;2023-08-07T05:48:34;14.20;99.90
33715;DHT22;20043;50.998;4.754;2023-08-07T05:50:59;14.10;99.90
33715;DHT22;20043;50.998;4.754;2023-08-07T05:53:25;14.00;99.90
33715;DHT22;20043;50.998;4.754;2023-08-07T05:55:51;14.00;99.90
33715;DHT22;20043;50.998;4.754;2023-08-07T05:58:16;13.80;99.90
33715;DHT22;20043;50.998;4.754;2023-08-07T06:00:42;13.90;99.90
33715;DHT22;20043;50.998;4.754;2023-08-07T06:03:08;13.90;99.90
33715;DHT22;20043;50.998;4.754;2023-08-07T06:05:34;14.10;99.90
33715;DHT22;20043;50.998;4.754;2023-08-07T06:08:00;14.60;99.90
33715;DHT22;20043;50.998;4.754;2023-08-07T06:10:26;15.20;99.90
33715;DHT22;20043;50.998;4.754;2023-08-07T06:12:52;15.90;99.90
33715;DHT22;20043;50.998;4.754;2023-08-07T06:15:17;16.50;99.90
33715;DHT22;20043;50.998;4.754;2023-08-07T06:17:43;17.10;99.90
33715;DHT22;20043;50.998;4.754;2023-08-07T06:20:09;17.80;99.90
33715;DHT22;20043;50.998;4.754;2023-08-07T06:22:37;18.10;99.90
33715;DHT22;20043;50.998;4.754;2023-08-07T06:25:02;18.40;99.90
33715;DHT22;20043;50.998;4.754;2023-08-07T06:27:35;19.10;99.90
33715;DHT22;20043;50.998;4.754;2023-08-07T06:30:01;19.10;99.90
33715;DHT22;20043;50.998;4.754;2023-08-07T06:32:27;19.20;99.90
33715;DHT22;20043;50.998;4.754;2023-08-07T06:34:53;19.30;99.90
33715;DHT22;20043;50.998;4.754;2023-08-07T06:37:19;19.30;99.90
33715;DHT22;20043;50.998;4.754;2023-08-07T06:39:45;19.30;99.90
33715;DHT22;20043;50.998;4.754;2023-08-07T06:42:12;19.40;99.90
33715;DHT22;20043;50.998;4.754;2023-08-07T06:44:38;19.10;99.90
33715;DHT22;20043;50.998;4.754;2023-08-07T06:47:03;19.00;99.90
33715;DHT22;20043;50.998;4.754;2023-08-07T06:49:29;19.10;99.90
33715;DHT22;20043;50.998;4.754;2023-08-07T06:51:57;19.40;99.90
33715;DHT22;20043;50.998;4.754;2023-08-07T06:54:23;19.60;99.90
33715;DHT22;20043;50.998;4.754;2023-08-07T06:56:48;19.80;99.90
33715;DHT22;20043;50.998;4.754;2023-08-07T06:59:14;19.40;99.90
33715;DHT22;20043;50.998;4.754;2023-08-07T07:01:39;19.30;99.90
33715;DHT22;20043;50.998;4.754;2023-08-07T07:04:05;18.90;99.90
33715;DHT22;20043;50.998;4.754;2023-08-07T07:06:31;18.60;99.90
33715;DHT22;20043;50.998;4.754;2023-08-07T07:08:56;18.80;99.90
33715;DHT22;20043;50.998;4.754;2023-08-07T07:11:22;18.80;99.90
33715;DHT22;20043;50.998;4.754;2023-08-07T07:13:50;18.80;99.90
33715;DHT22;20043;50.998;4.754;2023-08-07T07:16:19;18.70;99.90
33715;DHT22;20043;50.998;4.754;2023-08-07T07:18:47;18.70;99.90
33715;DHT22;20043;50.998;4.754;2023-08-07T07:21:13;18.60;99.90
33715;DHT22;20043;50.998;4.754;2023-08-07T07:23:39;18.40;99.90
33715;DHT22;20043;50.998;4.754;2023-08-07T07:26:04;18.50;99.90
33715;DHT22;20043;50.998;4.754;2023-08-07T07:28:30;18.30;99.90
33715;DHT22;20043;50.998;4.754;2023-08-07T07:30:56;18.10;99.90
33715;DHT22;20043;50.998;4.754;2023-08-07T07:33:21;18.10;99.90
33715;DHT22;20043;50.998;4.754;2023-08-07T07:35:47;18.30;99.90
33715;DHT22;20043;50.998;4.754;2023-08-07T07:38:13;18.40;99.90
33715;DHT22;20043;50.998;4.754;2023-08-07T07:40:39;18.40;99.90
33715;DHT22;20043;50.998;4.754;2023-08-07T07:43:04;18.30;99.90
33715;DHT22;20043;50.998;4.754;2023-08-07T07:45:30;18.30;99.90
33715;DHT22;20043;50.998;4.754;2023-08-07T07:47:56;18.40;99.90
33715;DHT22;20043;50.998;4.754;2023-08-07T07:50:22;18.40;99.90
33715;DHT22;20043;50.998;4.754;2023-08-07T07:52:47;18.30;99.90
33715;DHT22;20043;50.998;4.754;2023-08-07T07:55:13;18.30;99.90
33715;DHT22;20043;50.998;4.754;2023-08-07T07:57:39;18.30;99.90
33715;DHT22;20043;50.998;4.754;2023-08-07T08:00:06;18.30;99.90
33715;DHT22;20043;50.998;4.754;2023-08-07T08:02:36;18.40;99.90
33715;DHT22;20043;50.998;4.754;2023-08-07T08:05:02;18.60;99.90
33715;DHT22;20043;50.998;4.754;2023-08-07T08:07:27;18.70;99.90
33715;DHT22;20043;50.998;4.754;2023-08-07T08:09:53;18.70;99.90
33715;DHT22;20043;50.998;4.754;2023-08-07T08:12:19;18.80;99.90
33715;DHT22;20043;50.998;4.754;2023-08-07T08:14:44;18.80;99.90
33715;DHT22;20043;50.998;4.754;2023-08-07T08:17:10;19.00;99.90
33715;DHT22;20043;50.998;4.754;2023-08-07T08:19:35;19.20;99.90
33715;DHT22;20043;50.998;4.754;2023-08-07T08:22:01;19.30;99.90
33715;DHT22;20043;50.998;4.754;2023-08-07T08:24:27;19.30;99.90
33715;DHT22;20043;50.998;4.754;2023-08-07T08:27:00;19.30;99.90
33715;DHT22;20043;50.998;4.754;2023-08-07T08:29:26;19.20;99.90
33715;DHT22;20043;50.998;4.754;2023-08-07T08:31:53;19.10;99.90
33715;DHT22;20043;50.998;4.754;2023-08-07T08:34:20;19.00;99.90
33715;DHT22;20043;50.998;4.754;2023-08-07T08:36:47;18.90;99.90
33715;DHT22;20043;50.998;4.754;2023-08-07T08:39:13;18.70;99.90
33715;DHT22;20043;50.998;4.754;2023-08-07T08:41:39;18.70;99.90
33715;DHT22;20043;50.998;4.754;2023-08-07T08:44:07;18.40;99.90
33715;DHT22;20043;50.998;4.754;2023-08-07T08:46:33;18.30;99.90
33715;DHT22;20043;50.998;4.754;2023-08-07T08:49:01;18.50;99.90
33715;DHT22;20043;50.998;4.754;2023-08-07T08:51:30;18.70;99.90
33715;DHT22;20043;50.998;4.754;2023-08-07T08:53:56;18.90;99.90
33715;DHT22;20043;50.998;4.754;2023-08-07T08:56:23;19.10;99.90
33715;DHT22;20043;50.998;4.754;2023-08-07T08:58:51;19.10;99.90
33715;DHT22;20043;50.998;4.754;2023-08-07T09:01:18;19.20;99.90
33715;DHT22;20043;50.998;4.754;2023-08-07T09:03:47;19.40;99.90
33715;DHT22;20043;50.998;4.754;2023-08-07T09:06:13;19.60;99.90
33715;DHT22;20043;50.998;4.754;2023-08-07T09:08:42;19.80;99.90
33715;DHT22;20043;50.998;4.754;2023-08-07T09:11:08;19.90;99.90
33715;DHT22;20043;50.998;4.754;2023-08-07T09:13:37;20.10;99.90
33715;DHT22;20043;50.998;4.754;2023-08-07T09:16:04;20.10;99.90
33715;DHT22;20043;50.998;4.754;2023-08-07T09:18:31;20.00;99.90
33715;DHT22;20043;50.998;4.754;2023-08-07T09:20:57;19.90;99.90
33715;DHT22;20043;50.998;4.754;2023-08-07T09:23:24;19.60;99.90
33715;DHT22;20043;50.998;4.754;2023-08-07T09:25:59;19.70;99.90
33715;DHT22;20043;50.998;4.754;2023-08-07T09:28:26;19.90;99.90
33715;DHT22;20043;50.998;4.754;2023-08-07T09:30:52;20.00;99.90
33715;DHT22;20043;50.998;4.754;2023-08-07T09:33:29;20.10;99.90
33715;DHT22;20043;50.998;4.754;2023-08-07T09:36:00;20.20;99.90
33715;DHT22;20043;50.998;4.754;2023-08-07T09:38:30;20.20;99.90
33715;DHT22;20043;50.998;4.754;2023-08-07T09:40:59;20.40;99.90
33715;DHT22;20043;50.998;4.754;2023-08-07T09:43:25;20.40;99.90
33715;DHT22;20043;50.998;4.754;2023-08-07T09:45:50;20.20;99.90
33715;DHT22;20043;50.998;4.754;2023-08-07T09:48:23;20.30;99.90
33715;DHT22;20043;50.998;4.754;2023-08-07T09:50:49;20.50;99.90
33715;DHT22;20043;50.998;4.754;2023-08-07T09:53:15;20.60;99.90
33715;DHT22;20043;50.998;4.754;2023-08-07T09:55:40;20.50;99.90
33715;DHT22;20043;50.998;4.754;2023-08-07T09:58:08;20.20;99.90
33715;DHT22;20043;50.998;4.754;2023-08-07T10:00:36;20.20;99.90
33715;DHT22;20043;50.998;4.754;2023-08-07T10:03:03;20.40;99.90
33715;DHT22;20043;50.998;4.754;2023-08-07T10:05:30;20.20;99.90
33715;DHT22;20043;50.998;4.754;2023-08-07T10:07:57;20.00;99.90
33715;DHT22;20043;50.998;4.754;2023-08-07T10:10:23;20.30;99.90
33715;DHT22;20043;50.998;4.754;2023-08-07T10:12:51;20.60;99.90
33715;DHT22;20043;50.998;4.754;2023-08-07T10:15:18;20.90;99.90
33715;DHT22;20043;50.998;4.754;2023-08-07T10:17:44;21.10;99.90
33715;DHT22;20043;50.998;4.754;2023-08-07T10:20:11;21.10;99.90
33715;DHT22;20043;50.998;4.754;2023-08-07T10:22:38;21.10;99.90
33715;DHT22;20043;50.998;4.754;2023-08-07T10:25:06;21.10;99.90
33715;DHT22;20043;50.998;4.754;2023-08-07T10:27:35;21.10;99.90
33715;DHT22;20043;50.998;4.754;2023-08-07T10:30:03;21.10;99.90
33715;DHT22;20043;50.998;4.754;2023-08-07T10:32:31;21.30;99.90
33715;DHT22;20043;50.998;4.754;2023-08-07T10:34:57;21.10;99.90
33715;DHT22;20043;50.998;4.754;2023-08-07T10:37:38;21.10;99.90
33715;DHT22;20043;50.998;4.754;2023-08-07T10:40:05;21.30;99.90
33715;DHT22;20043;50.998;4.754;2023-08-07T10:45:20;21.70;99.90
33715;DHT22;20043;50.998;4.754;2023-08-07T10:50:30;21.70;99.90
33715;DHT22;20043;50.998;4.754;2023-08-07T10:52:56;21.80;99.90
33715;DHT22;20043;50.998;4.754;2023-08-07T10:55:24;22.10;99.90
33715;DHT22;20043;50.998;4.754;2023-08-07T10:57:50;22.10;99.90
33715;DHT22;20043;50.998;4.754;2023-08-07T11:00:16;22.00;99.90
33715;DHT22;20043;50.998;4.754;2023-08-07T11:02:42;21.70;99.90
33715;DHT22;20043;50.998;4.754;2023-08-07T11:05:08;21.50;99.90
33715;DHT22;20043;50.998;4.754;2023-08-07T11:07:34;21.50;99.90
33715;DHT22;20043;50.998;4.754;2023-08-07T11:10:05;21.60;99.90
33715;DHT22;20043;50.998;4.754;2023-08-07T11:12:31;21.40;99.90
33715;DHT22;20043;50.998;4.754;2023-08-07T11:14:56;21.50;99.90
33715;DHT22;20043;50.998;4.754;2023-08-07T11:17:26;21.40;99.90
33715;DHT22;20043;50.998;4.754;2023-08-07T11:19:53;21.40;99.90
33715;DHT22;20043;50.998;4.754;2023-08-07T11:22:26;21.60;99.90
33715;DHT22;20043;50.998;4.754;2023-08-07T11:24:53;21.70;99.90
33715;DHT22;20043;50.998;4.754;2023-08-07T11:27:21;21.70;99.90
33715;DHT22;20043;50.998;4.754;2023-08-07T11:29:48;21.80;99.90
33715;DHT22;20043;50.998;4.754;2023-08-07T11:32:14;21.80;99.90
33715;DHT22;20043;50.998;4.754;2023-08-07T11:34:49;21.60;99.90
33715;DHT22;20043;50.998;4.754;2023-08-07T11:37:16;21.70;99.90
33715;DHT22;20043;50.998;4.754;2023-08-07T11:39:43;22.00;99.90
33715;DHT22;20043;50.998;4.754;2023-08-07T11:42:09;22.00;99.90
33715;DHT22;20043;50.998;4.754;2023-08-07T11:44:34;22.00;99.90
33715;DHT22;20043;50.998;4.754;2023-08-07T11:47:00;22.00;99.90
33715;DHT22;20043;50.998;4.754;2023-08-07T11:49:26;22.00;99.90
33715;DHT22;20043;50.998;4.754;2023-08-07T11:51:51;22.00;99.90
33715;DHT22;20043;50.998;4.754;2023-08-07T11:54:17;22.10;99.90
33715;DHT22;20043;50.998;4.754;2023-08-07T11:56:43;22.30;99.90
33715;DHT22;20043;50.998;4.754;2023-08-07T11:59:08;22.40;99.90
33715;DHT22;20043;50.998;4.754;2023-08-07T12:01:37;22.40;99.90
33715;DHT22;20043;50.998;4.754;2023-08-07T12:06:34;22.50;99.90
33715;DHT22;20043;50.998;4.754;2023-08-07T12:09:01;22.30;99.90
33715;DHT22;20043;50.998;4.754;2023-08-07T12:11:29;22.00;99.90
33715;DHT22;20043;50.998;4.754;2023-08-07T12:13:55;21.80;99.90
33715;DHT22;20043;50.998;4.754;2023-08-07T12:16:21;21.90;99.90
33715;DHT22;20043;50.998;4.754;2023-08-07T12:18:48;21.90;99.90
33715;DHT22;20043;50.998;4.754;2023-08-07T12:21:20;21.80;99.90
33715;DHT22;20043;50.998;4.754;2023-08-07T12:23:46;21.80;99.90
33715;DHT22;20043;50.998;4.754;2023-08-07T12:26:13;22.10;99.90
33715;DHT22;20043;50.998;4.754;2023-08-07T12:28:39;22.00;99.90
33715;DHT22;20043;50.998;4.754;2023-08-07T12:31:04;22.10;99.90
33715;DHT22;20043;50.998;4.754;2023-08-07T12:33:32;22.10;99.90
33715;DHT22;20043;50.998;4.754;2023-08-07T12:36:04;22.30;99.90
33715;DHT22;20043;50.998;4.754;2023-08-07T12:38:30;22.30;99.90
33715;DHT22;20043;50.998;4.754;2023-08-07T12:40:56;22.20;99.90
33715;DHT22;20043;50.998;4.754;2023-08-07T12:43:22;22.00;99.90
33715;DHT22;20043;50.998;4.754;2023-08-07T12:45:48;21.90;99.90
33715;DHT22;20043;50.998;4.754;2023-08-07T12:48:14;22.10;99.90
33715;DHT22;20043;50.998;4.754;2023-08-07T12:50:39;22.30;99.90
33715;DHT22;20043;50.998;4.754;2023-08-07T12:53:06;22.60;99.90
33715;DHT22;20043;50.998;4.754;2023-08-07T12:55:32;22.60;99.90
33715;DHT22;20043;50.998;4.754;2023-08-07T12:57:58;22.80;99.90
33715;DHT22;20043;50.998;4.754;2023-08-07T13:00:24;22.80;99.90
33715;DHT22;20043;50.998;4.754;2023-08-07T13:02:51;22.90;99.90
33715;DHT22;20043;50.998;4.754;2023-08-07T13:05:17;22.80;99.90
33715;DHT22;20043;50.998;4.754;2023-08-07T13:07:44;22.80;99.90
33715;DHT22;20043;50.998;4.754;2023-08-07T13:10:12;22.60;99.90
33715;DHT22;20043;50.998;4.754;2023-08-07T13:12:41;22.70;99.90
33715;DHT22;20043;50.998;4.754;2023-08-07T13:15:09;22.90;99.90
33715;DHT22;20043;50.998;4.754;2023-08-07T13:17:35;23.10;99.90
33715;DHT22;20043;50.998;4.754;2023-08-07T13:20:02;23.20;99.90
33715;DHT22;20043;50.998;4.754;2023-08-07T13:22:34;23.50;99.90
33715;DHT22;20043;50.998;4.754;2023-08-07T13:24:59;23.40;99.90
33715;DHT22;20043;50.998;4.754;2023-08-07T13:27:25;23.30;99.90
33715;DHT22;20043;50.998;4.754;2023-08-07T13:29:51;23.30;99.90
33715;DHT22;20043;50.998;4.754;2023-08-07T13:32:16;23.40;99.90
33715;DHT22;20043;50.998;4.754;2023-08-07T13:34:44;23.50;99.90
33715;DHT22;20043;50.998;4.754;2023-08-07T13:37:10;23.40;99.90
33715;DHT22;20043;50.998;4.754;2023-08-07T13:39:36;23.40;99.90
33715;DHT22;20043;50.998;4.754;2023-08-07T13:42:02;23.10;99.90
33715;DHT22;20043;50.998;4.754;2023-08-07T13:44:28;23.00;99.90
33715;DHT22;20043;50.998;4.754;2023-08-07T13:46:55;22.70;99.90
33715;DHT22;20043;50.998;4.754;2023-08-07T13:49:21;22.40;99.90
33715;DHT22;20043;50.998;4.754;2023-08-07T13:51:49;22.20;99.90
33715;DHT22;20043;50.998;4.754;2023-08-07T13:54:15;22.30;99.90
33715;DHT22;20043;50.998;4.754;2023-08-07T13:56:40;22.40;99.90
33715;DHT22;20043;50.998;4.754;2023-08-07T13:59:06;22.40;99.90
33715;DHT22;20043;50.998;4.754;2023-08-07T14:01:31;22.30;99.90
33715;DHT22;20043;50.998;4.754;2023-08-07T14:03:58;22.30;99.90
33715;DHT22;20043;50.998;4.754;2023-08-07T14:06:24;22.20;99.90
33715;DHT22;20043;50.998;4.754;2023-08-07T14:08:49;22.10;99.90
33715;DHT22;20043;50.998;4.754;2023-08-07T14:11:15;22.10;99.90
33715;DHT22;20043;50.998;4.754;2023-08-07T14:13:41;22.00;99.90
33715;DHT22;20043;50.998;4.754;2023-08-07T14:16:07;21.90;99.90
33715;DHT22;20043;50.998;4.754;2023-08-07T14:18:33;21.80;99.90
33715;DHT22;20043;50.998;4.754;2023-08-07T14:20:59;21.90;99.90
33715;DHT22;20043;50.998;4.754;2023-08-07T14:23:24;21.80;99.90
33715;DHT22;20043;50.998;4.754;2023-08-07T14:25:50;21.70;99.90
33715;DHT22;20043;50.998;4.754;2023-08-07T14:28:18;21.70;99.90
33715;DHT22;20043;50.998;4.754;2023-08-07T14:30:44;21.80;99.90
33715;DHT22;20043;50.998;4.754;2023-08-07T14:33:10;22.00;99.90
33715;DHT22;20043;50.998;4.754;2023-08-07T14:35:35;22.10;99.90
33715;DHT22;20043;50.998;4.754;2023-08-07T14:38:01;22.10;99.90
33715;DHT22;20043;50.998;4.754;2023-08-07T14:40:26;21.90;99.90
33715;DHT22;20043;50.998;4.754;2023-08-07T14:42:54;21.80;99.90
33715;DHT22;20043;50.998;4.754;2023-08-07T14:45:21;21.60;99.90
33715;DHT22;20043;50.998;4.754;2023-08-07T14:47:48;21.30;99.90
33715;DHT22;20043;50.998;4.754;2023-08-07T14:50:13;21.40;99.90
33715;DHT22;20043;50.998;4.754;2023-08-07T14:52:41;21.60;99.90
33715;DHT22;20043;50.998;4.754;2023-08-07T14:55:06;21.80;99.90
33715;DHT22;20043;50.998;4.754;2023-08-07T14:57:32;22.00;99.90
33715;DHT22;20043;50.998;4.754;2023-08-07T14:59:58;21.90;99.90
33715;DHT22;20043;50.998;4.754;2023-08-07T15:02:24;22.00;99.90
33715;DHT22;20043;50.998;4.754;2023-08-07T15:04:49;21.90;99.90
33715;DHT22;20043;50.998;4.754;2023-08-07T15:07:15;21.70;99.90
33715;DHT22;20043;50.998;4.754;2023-08-07T15:09:40;21.60;99.90
33715;DHT22;20043;50.998;4.754;2023-08-07T15:12:06;21.70;99.90
33715;DHT22;20043;50.998;4.754;2023-08-07T15:14:32;21.60;99.90
33715;DHT22;20043;50.998;4.754;2023-08-07T15:16:58;21.70;99.90
33715;DHT22;20043;50.998;4.754;2023-08-07T15:19:24;21.40;99.90
33715;DHT22;20043;50.998;4.754;2023-08-07T15:21:50;21.50;99.90
33715;DHT22;20043;50.998;4.754;2023-08-07T15:24:16;21.60;99.90
33715;DHT22;20043;50.998;4.754;2023-08-07T15:26:42;21.70;99.90
33715;DHT22;20043;50.998;4.754;2023-08-07T15:29:07;22.00;99.90
33715;DHT22;20043;50.998;4.754;2023-08-07T15:31:33;22.10;99.90
33715;DHT22;20043;50.998;4.754;2023-08-07T15:33:59;22.20;99.90
33715;DHT22;20043;50.998;4.754;2023-08-07T15:36:25;22.30;99.90
33715;DHT22;20043;50.998;4.754;2023-08-07T15:38:50;22.40;99.90
33715;DHT22;20043;50.998;4.754;2023-08-07T15:41:16;22.50;99.90
33715;DHT22;20043;50.998;4.754;2023-08-07T15:43:43;22.60;99.90
33715;DHT22;20043;50.998;4.754;2023-08-07T15:46:09;22.60;99.90